Time;durP1;ratioP1;P1;durP2;ratioP2;P2;SDS_P1;SDS_P2;PMS_P1;PMS_P2;Temp;Humidity;BMP_temperature;BMP_pressure;BME280_temperature;BME280_humidity;BME280_pressure;Samples;Min_cycle;Max_cycle;Signal;HPM_P1;HPM_P2
2022/06/10 00:00:05;;;;;;;1.27;0.00;;;;;;;25.07;51.36;100058.75;5031149;28;20034;-70
2022/06/10 00:02:31;;;;;;;0.30;0.00;;;;;;;25.08;51.52;100057.72;5043032;28;20531;-69
2022/06/10 00:04:56;;;;;;;0.90;0.10;;;;;;;25.09;51.47;100068.13;5041819;28;20030;-71
2022/06/10 00:07:23;;;;;;;2.60;0.00;;;;;;;25.09;51.60;100059.31;5029367;28;20029;-71
2022/06/10 00:09:48;;;;;;;1.83;0.10;;;;;;;25.08;51.65;100061.19;5030416;28;20059;-70
2022/06/10 00:12:13;;;;;;;1.45;0.10;;;;;;;25.08;51.73;100061.19;5030537;28;20117;-70
2022/06/10 00:14:39;;;;;;;5.85;0.10;;;;;;;25.08;51.63;100065.72;5030914;28;20435;-69
2022/06/10 00:17:04;;;;;;;1.55;0.10;;;;;;;25.09;51.52;100070.78;5030703;28;20060;-69
2022/06/10 00:19:30;;;;;;;1.48;0.10;;;;;;;25.09;51.42;100070.78;5030677;28;20029;-70
2022/06/10 00:21:55;;;;;;;0.85;0.10;;;;;;;25.08;51.48;100063.03;5030637;28;20095;-69
2022/06/10 00:24:20;;;;;;;1.67;0.10;;;;;;;25.08;51.77;100065.72;5030811;28;20036;-69
2022/06/10 00:26:46;;;;;;;0.45;0.05;;;;;;;25.08;51.72;100063.84;5030751;28;20389;-69
2022/06/10 00:29:11;;;;;;;0.35;0.08;;;;;;;25.08;51.50;100060.38;5030880;28;20377;-70
2022/06/10 00:31:37;;;;;;;0.22;0.00;;;;;;;25.08;51.81;100063.84;5030629;28;20053;-70
2022/06/10 00:34:02;;;;;;;2.17;0.00;;;;;;;25.08;51.42;100057.72;5030291;28;20064;-69
2022/06/10 00:36:27;;;;;;;0.85;0.00;;;;;;;25.08;51.56;100061.19;5030797;28;20108;-69
2022/06/10 00:38:53;;;;;;;0.47;0.00;;;;;;;25.08;51.42;100068.38;5030044;28;20084;-69
2022/06/10 00:41:20;;;;;;;0.45;0.10;;;;;;;25.08;51.41;100063.84;5030621;28;20363;-69
2022/06/10 00:43:46;;;;;;;0.25;0.00;;;;;;;25.08;51.52;100058.53;5030357;28;20112;-70
2022/06/10 00:46:26;;;;;;;1.45;0.10;;;;;;;25.07;51.16;100062.25;5030177;28;20053;-70
2022/06/10 00:49:07;;;;;;;1.67;0.10;;;;;;;25.05;50.97;100059.00;5030024;28;20481;-69
2022/06/10 00:51:41;;;;;;;1.85;0.10;;;;;;;25.07;51.13;100050.78;5030209;28;20088;-69
2022/06/10 00:54:37;;;;;;;3.40;0.10;;;;;;;25.06;50.97;100054.50;5029907;28;20140;-70
2022/06/10 00:57:06;;;;;;;2.45;0.10;;;;;;;25.07;51.00;100062.25;5030475;28;20038;-70
2022/06/10 00:59:42;;;;;;;0.60;0.10;;;;;;;25.07;50.93;100056.91;5029861;28;20025;-68
2022/06/10 01:02:11;;;;;;;1.52;0.10;;;;;;;25.08;50.73;100053.19;5029821;28;20044;-71
2022/06/10 01:04:40;;;;;;;1.75;0.00;;;;;;;25.08;50.26;100049.72;5029912;28;20033;-71
2022/06/10 01:07:06;;;;;;;6.03;0.13;;;;;;;25.08;50.05;100044.38;5030270;28;20033;-69
2022/06/10 01:09:32;;;;;;;0.98;0.10;;;;;;;25.07;49.85;100046.25;5029788;28;20130;-70
2022/06/10 01:12:35;;;;;;;0.63;0.10;;;;;;;25.04;49.37;100056.63;5029710;28;20028;-70
2022/06/10 01:15:14;;;;;;;0.57;0.00;;;;;;;25.02;49.03;100054.22;5029540;28;20037;-71
2022/06/10 01:17:56;;;;;;;2.88;0.10;;;;;;;25.03;49.16;100063.00;5029606;28;20073;-71
2022/06/10 01:20:59;;;;;;;1.90;0.00;;;;;;;24.99;48.93;100076.03;5029356;28;20124;-71
2022/06/10 01:23:40;;;;;;;2.92;0.10;;;;;;;24.99;49.09;100070.69;4948833;29;20131;-70
2022/06/10 01:26:32;;;;;;;0.95;0.05;;;;;;;24.95;48.94;100069.56;4948862;29;20423;-71
2022/06/10 01:29:25;;;;;;;2.63;0.05;;;;;;;24.94;48.92;100061.81;4948860;29;20039;-70
2022/06/10 01:31:58;;;;;;;2.80;0.00;;;;;;;24.97;49.02;100069.34;4948633;29;20581;-68
2022/06/10 01:34:38;;;;;;;5.05;0.05;;;;;;;24.94;49.35;100073.28;4948495;29;20150;-70
2022/06/10 01:37:25;;;;;;;0.85;0.00;;;;;;;24.93;49.01;100070.84;4948660;29;20480;-70
2022/06/10 01:40:19;;;;;;;1.23;0.05;;;;;;;24.92;49.49;100070.03;4948451;29;20542;-71
2022/06/10 01:42:58;;;;;;;0.75;0.00;;;;;;;24.92;49.49;100082.56;4946375;29;20047;-70
2022/06/10 01:46:02;;;;;;;1.10;0.00;;;;;;;24.91;49.28;100080.94;4948033;29;20136;-70
2022/06/10 01:49:00;;;;;;;2.97;0.00;;;;;;;24.89;49.31;100080.41;4946999;28;20574;-70
2022/06/10 01:51:33;;;;;;;1.98;0.00;;;;;;;24.90;49.37;100088.13;4928725;29;20637;-70
2022/06/10 01:54:07;;;;;;;2.05;0.03;;;;;;;24.91;49.12;100088.94;4929063;29;20036;-70
2022/06/10 01:56:39;;;;;;;1.40;0.10;;;;;;;24.91;49.36;100088.94;4937610;28;20641;-71
2022/06/10 01:59:15;;;;;;;0.60;0.00;;;;;;;24.90;49.10;100085.47;4987200;28;20478;-69
2022/06/10 02:01:48;;;;;;;1.48;0.00;;;;;;;24.91;48.85;100089.75;4986710;28;20286;-71
2022/06/10 02:04:28;;;;;;;3.05;0.00;;;;;;;24.89;48.98;100088.38;4986694;28;20272;-69
2022/06/10 02:07:31;;;;;;;0.00;0.00;;;;;;;24.88;48.95;100079.59;4986477;28;20050;-71
2022/06/10 02:10:06;;;;;;;0.98;0.20;;;;;;;24.89;48.64;100089.19;4968460;28;20073;-71
2022/06/10 02:12:37;;;;;;;1.15;0.00;;;;;;;24.87;48.29;100099.28;4986431;28;20038;-71
2022/06/10 02:15:40;;;;;;;1.25;0.00;;;;;;;24.85;48.05;100089.94;4986630;28;20131;-71
2022/06/10 02:18:23;;;;;;;1.88;0.00;;;;;;;24.83;47.96;100094.69;4983005;28;20053;-68
2022/06/10 02:20:53;;;;;;;1.73;0.00;;;;;;;24.84;47.89;100093.66;4986327;28;20125;-70
2022/06/10 02:23:26;;;;;;;0.80;0.10;;;;;;;24.83;47.79;100086.72;4986311;28;20042;-70
2022/06/10 02:25:56;;;;;;;2.45;0.00;;;;;;;24.84;47.82;100088.31;4986450;28;20144;-69
2022/06/10 02:28:36;;;;;;;1.25;0.10;;;;;;;24.83;47.93;100105.34;5016597;28;20033;-69
2022/06/10 02:31:15;;;;;;;1.45;0.00;;;;;;;24.82;47.85;100107.22;5038939;28;20032;-70
2022/06/10 02:33:41;;;;;;;2.67;0.10;;;;;;;24.83;47.86;100105.34;5045042;28;20059;-68
2022/06/10 02:36:31;;;;;;;1.15;0.00;;;;;;;24.79;47.43;100111.19;5046715;28;20098;-70
2022/06/10 02:39:21;;;;;;;1.63;0.00;;;;;;;24.77;47.71;100110.63;5046810;28;20368;-71
2022/06/10 02:42:05;;;;;;;1.27;0.00;;;;;;;24.78;47.59;100112.22;5046253;28;20410;-70
2022/06/10 02:44:58;;;;;;;2.17;0.00;;;;;;;24.75;46.97;100112.72;5032048;28;20033;-69
2022/06/10 02:47:36;;;;;;;1.65;0.00;;;;;;;24.73;46.79;100112.16;5046038;28;20033;-71
2022/06/10 02:50:02;;;;;;;0.47;0.10;;;;;;;24.75;46.66;100106.59;5038870;28;20100;-69
2022/06/10 02:52:33;;;;;;;1.00;0.00;;;;;;;24.75;46.95;100112.72;5038712;28;20109;-71
2022/06/10 02:54:59;;;;;;;3.80;0.00;;;;;;;24.76;46.98;100117.00;5038599;28;20086;-70
2022/06/10 03:03:01;;;;;;;0.70;0.10;;;;;;;24.75;46.72;100117.25;4918776;23;20581;-63
2022/06/10 03:05:51;;;;;;;0.43;0.00;;;;;;;24.75;46.80;100120.72;4988878;28;20048;-63
2022/06/10 03:08:29;;;;;;;0.10;0.00;;;;;;;24.76;46.41;100124.97;4989107;28;20027;-63
2022/06/10 03:11:15;;;;;;;2.28;0.00;;;;;;;24.78;46.84;100136.22;4988883;28;20042;-65
2022/06/10 03:14:18;;;;;;;1.05;0.00;;;;;;;24.77;46.49;100139.13;4988776;28;20035;-64
2022/06/10 03:17:13;;;;;;;1.48;0.00;;;;;;;24.79;47.04;100140.47;4988665;28;20549;-62
2022/06/10 03:20:06;;;;;;;2.55;0.00;;;;;;;24.77;46.88;100134.59;4989070;28;20034;-64
2022/06/10 03:22:34;;;;;;;0.17;0.00;;;;;;;24.79;46.78;100151.13;4988606;28;20046;-61
2022/06/10 03:25:02;;;;;;;0.10;0.00;;;;;;;24.82;47.12;100160.50;4988803;28;20053;-62
2022/06/10 03:27:47;;;;;;;0.22;0.00;;;;;;;24.81;46.92;100146.38;4988528;28;20030;-63
2022/06/10 03:30:17;;;;;;;1.20;0.00;;;;;;;24.80;47.19;100160.75;4988533;28;20029;-65
2022/06/10 03:32:43;;;;;;;1.17;0.00;;;;;;;24.83;46.95;100162.13;4970936;28;20042;-63
2022/06/10 03:35:12;;;;;;;2.85;0.00;;;;;;;24.83;47.17;100161.31;4988283;28;20477;-61
2022/06/10 03:37:39;;;;;;;1.00;0.00;;;;;;;24.83;46.96;100155.97;4988654;28;20113;-64
2022/06/10 03:40:05;;;;;;;2.15;0.00;;;;;;;24.83;47.00;100164.78;4990351;28;20030;-64
2022/06/10 03:42:31;;;;;;;1.25;0.00;;;;;;;24.83;47.11;100169.31;4992012;28;20350;-65
2022/06/10 03:44:58;;;;;;;1.65;0.00;;;;;;;24.84;47.37;100160.25;4992040;28;20045;-62
2022/06/10 03:47:33;;;;;;;1.65;0.05;;;;;;;24.80;47.07;100163.41;4992209;28;20026;-62
2022/06/10 03:50:09;;;;;;;0.20;0.00;;;;;;;24.80;47.25;100168.72;4991790;28;20033;-63
2022/06/10 03:52:37;;;;;;;0.50;0.00;;;;;;;24.80;47.47;100170.59;4991790;28;20061;-63
2022/06/10 03:55:04;;;;;;;1.08;0.00;;;;;;;24.82;48.00;100173.81;4992019;28;20129;-63
2022/06/10 03:57:30;;;;;;;0.25;0.00;;;;;;;24.83;47.99;100177.28;4991702;28;20036;-63
2022/06/10 03:59:55;;;;;;;0.57;0.05;;;;;;;24.84;48.14;100182.38;4991973;28;20034;-61
2022/06/10 04:02:21;;;;;;;1.17;0.00;;;;;;;24.84;48.05;100174.38;4991380;28;20587;-63
2022/06/10 04:04:46;;;;;;;1.05;0.00;;;;;;;24.84;48.16;100169.06;4991950;28;20149;-63
2022/06/10 04:07:15;;;;;;;1.88;0.10;;;;;;;24.84;48.78;100168.25;4991560;28;20545;-61
2022/06/10 04:09:41;;;;;;;1.00;0.00;;;;;;;24.85;49.07;100181.31;4991639;28;20030;-62
2022/06/10 04:12:08;;;;;;;2.45;0.10;;;;;;;24.86;50.88;100176.81;4991430;28;20433;-63
2022/06/10 04:14:33;;;;;;;5.82;0.63;;;;;;;24.87;50.84;100181.88;4991415;28;20428;-62
2022/06/10 04:17:00;;;;;;;1.48;0.10;;;;;;;24.94;51.02;100184.38;4991550;28;20022;-62
2022/06/10 04:19:25;;;;;;;4.30;0.73;;;;;;;25.02;54.42;100174.13;4973685;28;20138;-63
2022/06/10 04:21:51;;;;;;;4.90;0.43;;;;;;;25.07;54.29;100179.50;4991956;28;20037;-61
2022/06/10 04:24:16;;;;;;;8.32;0.20;;;;;;;25.05;52.52;100191.47;4991164;28;20022;-63
2022/06/10 04:26:42;;;;;;;1.13;0.10;;;;;;;24.99;51.62;100203.94;4991811;28;20038;-61
2022/06/10 04:29:09;;;;;;;8.88;0.10;;;;;;;24.97;51.39;100207.91;4991235;28;20319;-65
2022/06/10 04:31:34;;;;;;;7.90;0.20;;;;;;;24.94;50.90;100208.38;4991141;28;20041;-63
2022/06/10 04:33:59;;;;;;;2.50;0.10;;;;;;;24.92;50.67;100208.63;4991071;28;20035;-62
2022/06/10 04:36:25;;;;;;;0.95;0.10;;;;;;;24.93;50.36;100202.22;4991655;28;20034;-64
2022/06/10 04:38:51;;;;;;;6.72;0.10;;;;;;;24.92;50.39;100211.28;4991283;28;20049;-65
2022/06/10 04:41:16;;;;;;;9.88;0.10;;;;;;;24.92;50.36;100219.28;4990989;28;20395;-63
2022/06/10 04:43:42;;;;;;;4.35;0.20;;;;;;;24.93;50.38;100218.22;4990917;28;20105;-63
2022/06/10 04:46:12;;;;;;;4.68;0.10;;;;;;;24.94;50.30;100221.69;4990756;28;20281;-63
2022/06/10 04:48:38;;;;;;;0.77;0.10;;;;;;;24.92;50.21;100223.78;4990878;28;20019;-59
2022/06/10 04:51:04;;;;;;;5.90;0.20;;;;;;;24.92;50.65;100226.47;4990770;28;20200;-66
2022/06/10 04:53:29;;;;;;;3.50;0.40;;;;;;;24.91;50.35;100227.50;4990717;28;20023;-66
2022/06/10 04:55:55;;;;;;;7.68;0.30;;;;;;;24.86;50.21;100227.44;4990874;28;20030;-66
2022/06/10 04:58:20;;;;;;;3.00;0.10;;;;;;;24.85;50.06;100228.47;4990514;28;20081;-66
2022/06/10 05:00:49;;;;;;;6.18;0.20;;;;;;;24.86;49.63;100235.41;4990692;28;20026;-62
2022/06/10 05:03:15;;;;;;;3.70;0.10;;;;;;;24.85;49.57;100233.81;4990320;28;20050;-63
2022/06/10 05:05:42;;;;;;;3.58;0.10;;;;;;;24.85;49.25;100236.47;4990521;28;20026;-62
2022/06/10 05:08:11;;;;;;;5.32;0.28;;;;;;;24.84;48.72;100246.31;4991004;28;20030;-62
2022/06/10 05:10:37;;;;;;;2.08;0.10;;;;;;;24.84;48.88;100246.31;4990507;28;20096;-61
2022/06/10 05:13:03;;;;;;;0.73;0.08;;;;;;;24.80;48.44;100242.53;4990364;28;20486;-64
2022/06/10 05:15:29;;;;;;;3.78;0.20;;;;;;;24.80;48.42;100255.84;4990445;28;20057;-63
2022/06/10 05:17:57;;;;;;;4.13;0.10;;;;;;;24.80;47.84;100263.84;4990781;28;20030;-61
2022/06/10 05:20:43;;;;;;;2.38;0.13;;;;;;;24.75;47.44;100261.91;4990746;28;20026;-62
2022/06/10 05:23:11;;;;;;;2.28;0.20;;;;;;;24.73;47.47;100264.00;4990365;28;20044;-64
2022/06/10 05:25:37;;;;;;;1.23;0.52;;;;;;;24.73;47.23;100264.00;4990012;28;20034;-64
2022/06/10 05:28:05;;;;;;;1.80;0.00;;;;;;;24.71;47.12;100266.09;4990006;28;20033;-62
2022/06/10 05:30:31;;;;;;;2.05;0.08;;;;;;;24.71;47.00;100275.94;4990444;28;20198;-66
2022/06/10 05:32:59;;;;;;;1.35;0.10;;;;;;;24.70;46.97;100272.47;4989846;28;20416;-63
2022/06/10 05:35:25;;;;;;;4.03;0.10;;;;;;;24.67;46.51;100278.28;4972465;28;20049;-62
2022/06/10 05:37:51;;;;;;;7.70;0.28;;;;;;;24.68;46.62;100279.91;4990129;28;20490;-64
2022/06/10 05:40:17;;;;;;;0.98;0.10;;;;;;;24.70;46.47;100284.97;4989987;28;20030;-64
2022/06/10 05:42:45;;;;;;;6.03;0.20;;;;;;;24.66;46.04;100290.00;4989919;28;20030;-63
2022/06/10 05:45:14;;;;;;;3.95;0.17;;;;;;;24.63;46.00;100285.13;4989859;28;20034;-62
2022/06/10 05:47:41;;;;;;;2.40;0.20;;;;;;;24.62;45.89;100288.03;4989775;28;20038;-65
2022/06/10 05:50:35;;;;;;;1.92;0.20;;;;;;;24.60;45.93;100290.94;4989849;28;20030;-64
2022/06/10 05:53:02;;;;;;;1.17;0.10;;;;;;;24.61;46.18;100291.75;4989947;28;20450;-63
2022/06/10 05:55:30;;;;;;;5.00;0.20;;;;;;;24.62;46.18;100288.03;4989597;28;20034;-63
2022/06/10 05:57:55;;;;;;;1.73;0.13;;;;;;;24.61;46.15;100291.75;4989633;28;20034;-63
2022/06/10 06:00:26;;;;;;;2.50;0.17;;;;;;;24.60;46.41;100296.28;4989690;28;20312;-61
2022/06/10 06:02:52;;;;;;;1.00;0.10;;;;;;;24.60;46.47;100306.13;4988769;28;20045;-63
2022/06/10 06:05:20;;;;;;;0.82;0.10;;;;;;;24.61;46.38;100305.06;4989400;28;20390;-65
2022/06/10 06:07:46;;;;;;;1.60;0.10;;;;;;;24.64;46.29;100312.59;4989594;28;20065;-62
2022/06/10 06:10:14;;;;;;;1.45;0.15;;;;;;;24.64;46.14;100316.06;4989526;28;20060;-64
2022/06/10 06:12:41;;;;;;;1.73;0.10;;;;;;;24.66;46.46;100310.50;4989575;28;20030;-65
2022/06/10 06:15:07;;;;;;;0.75;0.10;;;;;;;24.66;46.30;100321.94;4989544;28;20431;-64
2022/06/10 06:17:33;;;;;;;3.05;0.10;;;;;;;24.68;46.36;100327.03;4989469;28;20026;-62
2022/06/10 06:19:58;;;;;;;2.30;0.10;;;;;;;24.68;46.13;100335.84;4989805;28;20022;-64
2022/06/10 06:22:24;;;;;;;1.27;0.10;;;;;;;24.69;46.19;100331.31;4989109;28;20490;-63
2022/06/10 06:24:49;;;;;;;2.85;0.10;;;;;;;24.70;46.40;100339.06;4989126;28;20019;-63
2022/06/10 06:27:16;;;;;;;3.90;0.10;;;;;;;24.69;46.48;100332.13;4989158;28;20077;-62
2022/06/10 06:29:43;;;;;;;2.72;0.20;;;;;;;24.69;46.16;100332.13;4989001;28;20030;-65
2022/06/10 06:32:09;;;;;;;1.60;0.20;;;;;;;24.68;46.32;100335.84;4989524;28;20397;-63
2022/06/10 06:34:35;;;;;;;1.13;0.00;;;;;;;24.70;46.46;100357.72;4988995;28;20030;-64
2022/06/10 06:37:01;;;;;;;0.98;0.10;;;;;;;24.69;46.38;100353.44;4989181;28;20108;-62
2022/06/10 06:39:27;;;;;;;2.47;0.17;;;;;;;24.70;46.57;100348.91;4989373;28;20445;-63
2022/06/10 06:41:54;;;;;;;2.95;0.25;;;;;;;24.71;46.26;100342.53;4989015;28;20422;-63
2022/06/10 06:44:20;;;;;;;3.10;0.10;;;;;;;24.70;46.41;100356.91;4989281;28;20038;-62
2022/06/10 06:46:46;;;;;;;1.92;0.20;;;;;;;24.71;46.44;100358.53;4988805;28;20033;-65
2022/06/10 06:49:20;;;;;;;2.42;0.10;;;;;;;24.70;46.37;100365.72;4988921;28;20023;-65
2022/06/10 06:51:47;;;;;;;1.60;0.20;;;;;;;24.70;46.52;100355.06;4989242;28;20770;-62
2022/06/10 06:54:12;;;;;;;0.40;0.10;;;;;;;24.70;46.84;100365.72;4989084;28;20289;-63
2022/06/10 06:56:38;;;;;;;2.55;0.35;;;;;;;24.69;46.75;100358.75;4988855;28;20033;-62
2022/06/10 06:59:05;;;;;;;1.15;0.15;;;;;;;24.70;46.84;100373.69;4988868;28;20038;-64
2022/06/10 07:01:31;;;;;;;2.15;0.10;;;;;;;24.69;46.82;100374.75;4988274;28;20038;-61
2022/06/10 07:03:57;;;;;;;3.15;0.03;;;;;;;24.70;47.03;100381.69;4988876;28;20463;-62
2022/06/10 07:06:22;;;;;;;3.05;0.10;;;;;;;24.70;47.12;100376.38;4989044;28;20149;-65
2022/06/10 07:08:49;;;;;;;2.75;0.38;;;;;;;24.70;47.17;100386.22;4988816;28;20444;-61
2022/06/10 07:11:15;;;;;;;0.88;0.08;;;;;;;24.70;46.97;100386.22;4989138;28;20037;-65
2022/06/10 07:13:40;;;;;;;0.70;0.10;;;;;;;24.71;47.04;100385.97;4990267;28;20031;-65
2022/06/10 07:16:07;;;;;;;5.05;0.13;;;;;;;24.72;47.18;100394.78;4992172;28;20037;-65
2022/06/10 07:18:33;;;;;;;1.80;0.10;;;;;;;24.74;47.56;100395.34;4992741;28;20066;-62
2022/06/10 07:20:59;;;;;;;2.13;0.10;;;;;;;24.74;47.91;100395.34;4992727;28;20082;-62
2022/06/10 07:23:26;;;;;;;5.07;0.17;;;;;;;24.76;48.60;100396.72;4992344;28;20469;-61
2022/06/10 07:25:51;;;;;;;6.15;0.47;;;;;;;24.78;49.03;100388.50;4992095;28;20030;-63
2022/06/10 07:28:17;;;;;;;4.40;0.30;;;;;;;24.78;48.81;100397.28;4992447;28;20054;-62
2022/06/10 07:30:43;;;;;;;6.28;0.38;;;;;;;24.77;48.84;100398.34;4992001;28;20426;-67
2022/06/10 07:33:10;;;;;;;4.05;0.52;;;;;;;24.75;48.82;100405.75;4992145;28;20026;-64
2022/06/10 07:35:37;;;;;;;3.25;0.13;;;;;;;24.74;48.98;100406.81;4992270;28;20030;-64
2022/06/10 07:38:04;;;;;;;1.88;0.20;;;;;;;24.74;48.80;100406.00;4992132;28;20072;-63
2022/06/10 07:43:16;;;;;;;1.60;0.20;;;;;;;24.74;48.84;100417.47;4992515;28;20040;-64
2022/06/10 07:45:42;;;;;;;1.48;0.10;;;;;;;24.74;48.90;100417.47;4992209;28;20023;-65
2022/06/10 07:48:10;;;;;;;4.15;0.30;;;;;;;24.74;48.86;100424.66;4992234;28;20095;-63
2022/06/10 07:50:37;;;;;;;7.05;0.30;;;;;;;24.74;49.08;100419.31;4991901;28;20113;-62
2022/06/10 07:53:02;;;;;;;4.22;0.20;;;;;;;24.75;48.76;100424.41;4992064;28;20034;-65
2022/06/10 07:55:28;;;;;;;3.28;0.17;;;;;;;24.75;48.87;100421.75;4991586;28;20428;-65
2022/06/10 07:57:54;;;;;;;9.05;0.20;;;;;;;24.73;49.04;100425.69;4991645;28;20030;-64
2022/06/10 08:00:21;;;;;;;5.50;0.20;;;;;;;24.73;49.16;100423.03;4991689;28;20031;-65
2022/06/10 08:02:46;;;;;;;5.57;0.40;;;;;;;24.73;48.96;100423.03;4991597;28;20438;-62
2022/06/10 08:05:14;;;;;;;3.17;0.20;;;;;;;24.72;48.90;100429.41;4990374;28;20053;-61
2022/06/10 08:07:41;;;;;;;1.42;0.10;;;;;;;24.72;49.15;100430.22;4988637;28;20026;-66
2022/06/10 08:10:17;;;;;;;0.98;0.28;;;;;;;24.72;48.77;100427.56;4991359;28;20025;-63
2022/06/10 08:12:42;;;;;;;2.95;0.47;;;;;;;24.71;48.99;100433.94;4991647;28;20044;-69
2022/06/10 08:15:08;;;;;;;1.20;0.10;;;;;;;24.70;49.07;100440.31;4991671;28;20026;-72
2022/06/10 08:17:34;;;;;;;2.72;0.20;;;;;;;24.70;49.17;100439.50;4991400;28;20026;-68
2022/06/10 08:20:01;;;;;;;3.13;0.32;;;;;;;24.70;48.96;100434.97;4991403;28;20030;-70
2022/06/10 08:22:33;;;;;;;3.67;0.20;;;;;;;24.70;48.97;100439.50;4991311;28;20030;-67
2022/06/10 08:25:06;;;;;;;4.78;0.20;;;;;;;24.68;48.53;100437.06;4990533;28;20125;-69
2022/06/10 08:27:32;;;;;;;2.40;0.30;;;;;;;24.67;48.68;100439.97;4991251;28;20030;-70
2022/06/10 08:29:57;;;;;;;4.70;0.45;;;;;;;24.66;48.46;100449.81;4991383;28;20045;-71
2022/06/10 08:32:23;;;;;;;7.95;0.68;;;;;;;24.64;48.52;100443.09;4991286;28;20030;-71
2022/06/10 08:34:49;;;;;;;11.38;0.60;;;;;;;24.61;48.34;100452.38;4991072;28;20073;-68
2022/06/10 08:37:16;;;;;;;4.90;0.60;;;;;;;24.59;48.22;100443.00;4990936;28;20046;-72
2022/06/10 08:39:41;;;;;;;9.00;0.70;;;;;;;24.56;48.61;100448.84;4991137;28;20560;-68
2022/06/10 08:42:25;;;;;;;9.57;0.63;;;;;;;24.56;48.47;100460.28;4991166;28;20030;-70
2022/06/10 08:44:57;;;;;;;12.45;1.13;;;;;;;24.56;48.74;100460.28;4991523;28;20048;-68
2022/06/10 08:47:40;;;;;;;5.50;0.60;;;;;;;24.55;48.70;100463.19;4991016;28;20030;-68
2022/06/10 08:50:12;;;;;;;7.35;0.70;;;;;;;24.54;48.62;100467.72;4991107;28;20497;-68
2022/06/10 08:52:53;;;;;;;7.60;0.70;;;;;;;24.50;49.21;100479.88;4991058;28;20066;-66
2022/06/10 08:55:27;;;;;;;9.95;0.65;;;;;;;24.50;49.15;100474.56;4990842;28;20486;-66
2022/06/10 08:57:56;;;;;;;5.80;0.47;;;;;;;24.50;49.01;100476.41;4989148;28;20034;-67
2022/06/10 09:00:36;;;;;;;2.25;0.30;;;;;;;24.49;48.98;100475.59;4990492;28;20390;-68
2022/06/10 09:03:29;;;;;;;8.57;0.30;;;;;;;24.48;49.15;100482.78;4989319;28;20137;-66
2022/06/10 09:05:59;;;;;;;2.50;0.20;;;;;;;24.50;49.12;100481.72;4985810;28;20066;-68
2022/06/10 09:08:28;;;;;;;8.15;0.68;;;;;;;24.56;49.56;100486.13;4989117;28;20040;-66
2022/06/10 09:11:05;;;;;;;2.00;0.50;;;;;;;24.63;50.46;100492.09;4989438;28;20026;-68
2022/06/10 09:13:31;;;;;;;3.17;0.17;;;;;;;24.64;49.20;100496.38;4989994;28;20044;-69
2022/06/10 09:16:05;;;;;;;5.18;0.15;;;;;;;24.61;47.91;100497.66;4990380;28;20034;-69
2022/06/10 09:18:56;;;;;;;2.67;0.40;;;;;;;24.55;47.29;100497.81;4990298;28;20117;-68
2022/06/10 09:21:37;;;;;;;2.65;0.10;;;;;;;24.55;47.24;100501.28;4989913;28;20022;-70
2022/06/10 09:24:11;;;;;;;0.73;0.00;;;;;;;24.52;46.49;100504.41;4990047;28;20128;-69
2022/06/10 09:26:43;;;;;;;2.83;0.10;;;;;;;24.53;46.13;100502.56;4989904;28;20050;-69
2022/06/10 09:29:09;;;;;;;1.30;0.08;;;;;;;24.53;46.01;100495.38;4989934;28;20058;-67
2022/06/10 09:31:38;;;;;;;1.35;0.03;;;;;;;24.53;45.99;100508.69;4987932;28;20403;-71
2022/06/10 09:34:25;;;;;;;3.03;0.00;;;;;;;24.52;46.15;100499.09;4989954;28;20054;-68
2022/06/10 09:36:57;;;;;;;0.98;0.03;;;;;;;24.51;46.24;100505.47;4989193;28;20042;-68
2022/06/10 09:43:03;;;;;;;0.80;0.08;;;;;;;24.51;46.72;100515.31;4979083;28;20084;-72
2022/06/10 09:45:37;;;;;;;1.85;0.10;;;;;;;24.53;47.05;100508.69;4984232;28;20482;-74
2022/06/10 09:48:11;;;;;;;0.60;0.00;;;;;;;24.54;47.01;100513.00;4984570;28;20498;-67
2022/06/10 09:50:53;;;;;;;0.55;0.10;;;;;;;24.53;47.03;100514.03;4989883;28;20038;-70
2022/06/10 09:54:02;;;;;;;3.75;0.10;;;;;;;24.53;46.81;100514.03;4986776;28;20030;-69
2022/06/10 09:56:40;;;;;;;0.47;0.00;;;;;;;24.54;46.81;100522.84;4907717;29;20047;-71
2022/06/10 09:59:24;;;;;;;0.55;0.00;;;;;;;24.54;46.67;100514.84;4910421;29;20452;-71
2022/06/10 10:02:06;;;;;;;1.35;0.10;;;;;;;24.54;46.81;100514.84;4908345;29;20564;-68
2022/06/10 10:04:58;;;;;;;2.10;0.28;;;;;;;24.53;46.86;100514.03;4910135;29;20048;-68
2022/06/10 10:07:47;;;;;;;0.65;0.05;;;;;;;24.54;47.01;100514.84;4909996;29;20044;-67
2022/06/10 10:10:28;;;;;;;0.45;0.10;;;;;;;24.52;46.21;100512.41;4910059;29;20036;-69
2022/06/10 10:12:56;;;;;;;2.40;0.00;;;;;;;24.54;46.00;100509.50;4910089;29;20048;-73
2022/06/10 10:15:40;;;;;;;1.55;0.00;;;;;;;24.53;45.72;100508.69;4910657;29;20032;-70
2022/06/10 10:18:17;;;;;;;0.95;0.00;;;;;;;24.54;45.92;100515.66;4910028;29;20564;-71
2022/06/10 10:20:56;;;;;;;0.32;0.10;;;;;;;24.55;45.85;100517.28;4909757;29;20094;-67
2022/06/10 10:23:28;;;;;;;0.77;0.00;;;;;;;24.59;46.08;100518.38;4909762;29;20058;-72
2022/06/10 10:25:54;;;;;;;1.95;0.00;;;;;;;24.59;46.01;100513.06;4909805;29;20626;-70
2022/06/10 10:28:23;;;;;;;0.43;0.00;;;;;;;24.59;46.40;100523.72;4909782;29;20032;-70
2022/06/10 10:30:58;;;;;;;2.00;0.00;;;;;;;24.59;46.14;100525.56;4909823;29;20036;-71
2022/06/10 10:33:24;;;;;;;;;;;;;;;24.51;46.82;100528.63;4970402;28;20478;-71
2022/06/10 10:35:55;;;;;;;0.35;0.03;;;;;;;24.53;46.61;100534.53;4989137;28;19964;-70
2022/06/10 10:38:37;;;;;;;0.28;0.00;;;;;;;24.53;46.75;100535.34;4988908;28;20038;-73
2022/06/10 10:41:27;;;;;;;0.55;0.00;;;;;;;24.52;46.37;100532.91;4989144;28;20115;-67
2022/06/10 10:44:00;;;;;;;1.85;0.00;;;;;;;24.52;46.40;100533.72;4989070;28;20037;-73
2022/06/10 10:46:39;;;;;;;1.75;0.10;;;;;;;24.52;45.87;100539.03;4989040;28;20061;-71
2022/06/10 10:49:21;;;;;;;0.43;0.00;;;;;;;24.50;45.65;100540.31;4991384;28;20088;-72
2022/06/10 10:51:49;;;;;;;1.52;0.15;;;;;;;24.53;45.86;100540.66;4993422;28;20040;-72
2022/06/10 10:54:29;;;;;;;1.27;0.10;;;;;;;24.53;45.59;100543.31;4975772;28;20034;-71
2022/06/10 10:56:55;;;;;;;0.60;0.00;;;;;;;24.54;45.77;100547.63;4993180;28;20027;-71
2022/06/10 10:59:22;;;;;;;2.28;0.15;;;;;;;24.54;45.72;100539.63;4992973;28;20052;-71
2022/06/10 11:01:50;;;;;;;2.95;0.00;;;;;;;24.53;45.94;100540.66;4993081;28;20157;-72
2022/06/10 11:04:28;;;;;;;1.48;0.00;;;;;;;24.50;45.72;100541.13;4993010;28;20034;-73
2022/06/10 11:07:18;;;;;;;0.08;0.00;;;;;;;24.48;45.59;100548.53;4993080;28;20518;-72
2022/06/10 11:09:47;;;;;;;5.03;0.00;;;;;;;24.49;45.58;100539.50;4992796;28;20030;-72
2022/06/10 11:12:16;;;;;;;5.13;0.20;;;;;;;24.50;45.58;100535.81;4992642;28;20030;-70
2022/06/10 11:14:46;;;;;;;0.45;0.00;;;;;;;24.51;46.32;100534.75;4992460;28;20038;-67
2022/06/10 11:17:15;;;;;;;2.17;0.00;;;;;;;24.53;46.39;100540.66;4993024;28;20110;-65
2022/06/10 11:19:46;;;;;;;1.10;0.00;;;;;;;24.56;46.12;100537.53;4992511;28;20027;-69
2022/06/10 11:22:25;;;;;;;2.05;0.00;;;;;;;24.58;46.02;100538.09;4992896;28;20110;-68
2022/06/10 11:25:02;;;;;;;1.13;0.20;;;;;;;24.60;46.19;100538.66;4992544;28;20034;-71
2022/06/10 11:27:35;;;;;;;4.90;0.10;;;;;;;24.57;46.49;100528.50;4992587;28;20026;-71
2022/06/10 11:30:10;;;;;;;0.13;0.00;;;;;;;24.57;46.29;100525.03;4992792;28;20057;-68
2022/06/10 11:32:47;;;;;;;1.58;0.00;;;;;;;24.56;46.55;100534.88;4992752;28;20558;-68
2022/06/10 11:35:31;;;;;;;3.25;0.00;;;;;;;24.58;46.63;100532.75;4992232;28;20501;-73
2022/06/10 11:38:05;;;;;;;1.98;0.15;;;;;;;24.60;46.71;100533.31;4990186;28;20206;-71
2022/06/10 11:40:39;;;;;;;4.45;0.10;;;;;;;24.65;48.02;100528.09;4990162;28;20160;-69
2022/06/10 11:43:16;;;;;;;1.80;0.10;;;;;;;24.78;50.40;100533.19;4989385;28;20073;-73
2022/06/10 11:45:50;;;;;;;4.13;0.28;;;;;;;25.02;51.63;100538.47;4990413;28;20509;-69
2022/06/10 11:48:33;;;;;;;3.15;0.40;;;;;;;25.16;54.01;100526.44;4990230;28;20471;-72
2022/06/10 11:51:23;;;;;;;1.05;0.10;;;;;;;25.34;58.20;100525.44;4991768;28;20391;-68
2022/06/10 11:54:26;;;;;;;2.65;0.10;;;;;;;25.44;59.80;100537.09;4992434;28;20038;-69
2022/06/10 12:00:10;;;;;;;0.63;0.10;;;;;;;25.41;56.57;100536.78;4906369;29;20125;-69
2022/06/10 12:02:51;;;;;;;0.75;0.00;;;;;;;25.29;53.96;100528.84;4893245;29;20138;-68